Time,TemperatureF,DewpointF,PressureIn,WindDirection,WindDirectionDegrees,WindSpeedMPH,WindSpeedGustMPH,Humidity,HourlyPrecipIn,Conditions,Clouds,dailyrainin,SolarRadiationWatts/m^2,SoftwareType,DateUTC
2015-01-25 00:02:00,36.0,26.2,30.59,North,0,0.0,0.0,67,0.00,,,0.00,0.0,WUHU216DAVISVP2,2015-01-25 07:02:00,
2015-01-25 00:07:00,36.0,26.2,30.59,North,0,0.0,0.0,67,0.00,,,0.00,0.0,WUHU216DAVISVP2,2015-01-25 07:07:00,
2015-01-25 00:12:00,36.1,26.3,30.59,North,0,0.0,0.0,67,0.00,,,0.00,0.0,WUHU216DAVISVP2,2015-01-25 07:12:00,
2015-01-25 00:17:00,36.2,26.0,30.59,North,0,0.0,0.0,66,0.00,,,0.00,0.0,WUHU216DAVISVP2,2015-01-25 07:17:00,
2015-01-25 00:22:00,36.3,25.7,30.58,North,0,0.0,0.0,65,0.00,,,0.00,0.0,WUHU216DAVISVP2,2015-01-25 07:22:00,
2015-01-25 00:27:00,36.3,26.8,30.58,North,0,0.0,0.0,68,0.00,,,0.00,0.0,WUHU216DAVISVP2,2015-01-25 07:27:00,
2015-01-25 00:32:00,36.2,26.3,30.58,North,0,0.0,0.0,67,0.00,,,0.00,0.0,WUHU216DAVISVP2,2015-01-25 07:32:00,
2015-01-25 00:37:00,36.3,26.5,30.57,North,0,0.0,0.0,67,0.00,,,0.00,0.0,WUHU216DAVISVP2,2015-01-25 07:37:00,
2015-01-25 00:42:00,36.4,26.6,30.57,North,0,0.0,0.0,67,0.00,,,0.00,0.0,WUHU216DAVISVP2,2015-01-25 07:42:00,
2015-01-25 00:47:00,36.4,26.5,30.57,North,0,0.0,0.0,67,0.00,,,0.00,0.0,WUHU216DAVISVP2,2015-01-25 07:47:00,
2015-01-25 00:52:00,36.4,26.5,30.57,North,0,0.0,0.0,67,0.00,,,0.00,0.0,WUHU216DAVISVP2,2015-01-25 07:52:00,
2015-01-25 00:57:00,36.5,27.3,30.57,North,0,0.0,0.0,69,0.00,,,0.00,0.0,WUHU216DAVISVP2,2015-01-25 07:57:00,
2015-01-25 01:02:00,36.6,27.0,30.57,North,0,0.0,0.0,68,0.00,,,0.00,0.0,WUHU216DAVISVP2,2015-01-25 08:02:00,
2015-01-25 01:07:00,36.5,26.9,30.57,North,0,0.0,0.0,68,0.00,,,0.00,0.0,WUHU216DAVISVP2,2015-01-25 08:07:00,
2015-01-25 01:12:00,36.4,26.8,30.56,North,0,0.0,0.0,68,0.00,,,0.00,0.0,WUHU216DAVISVP2,2015-01-25 08:12:00,
2015-01-25 01:17:00,36.5,26.9,30.57,North,0,0.0,0.0,68,0.00,,,0.00,0.0,WUHU216DAVISVP2,2015-01-25 08:17:00,
2015-01-25 01:22:00,36.1,27.0,30.58,North,0,0.0,0.0,69,0.00,,,0.00,0.0,WUHU216DAVISVP2,2015-01-25 08:22:00,
2015-01-25 01:27:00,35.9,27.1,30.58,North,0,0.0,0.0,70,0.00,,,0.00,0.0,WUHU216DAVISVP2,2015-01-25 08:27:00,
2015-01-25 01:32:00,35.9,26.8,30.57,North,0,0.0,0.0,69,0.00,,,0.00,0.0,WUHU216DAVISVP2,2015-01-25 08:32:00,
2015-01-25 01:37:00,36.0,26.5,30.58,North,0,0.0,0.0,68,0.00,,,0.00,0.0,WUHU216DAVISVP2,2015-01-25 08:37:00,
2015-01-25 01:42:00,36.0,26.8,30.58,North,0,0.0,0.0,69,0.00,,,0.00,0.0,WUHU216DAVISVP2,2015-01-25 08:42:00,
2015-01-25 01:47:00,36.1,26.6,30.57,North,0,0.0,0.0,68,0.00,,,0.00,0.0,WUHU216DAVISVP2,2015-01-25 08:47:00,
2015-01-25 01:52:00,36.1,26.3,30.57,North,0,0.0,0.0,67,0.00,,,0.00,0.0,WUHU216DAVISVP2,2015-01-25 08:52:00,
2015-01-25 01:57:00,36.2,26.7,30.58,North,0,0.0,0.0,68,0.00,,,0.00,0.0,WUHU216DAVISVP2,2015-01-25 08:57:00,
2015-01-25 02:02:00,36.4,26.6,30.58,North,0,0.0,0.0,67,0.00,,,0.00,0.0,WUHU216DAVISVP2,2015-01-25 09:02:00,
2015-01-25 02:07:00,36.5,26.7,30.57,North,0,0.0,0.0,67,0.00,,,0.00,0.0,WUHU216DAVISVP2,2015-01-25 09:07:00,
2015-01-25 02:12:00,36.6,26.7,30.57,North,0,0.0,0.0,67,0.00,,,0.00,0.0,WUHU216DAVISVP2,2015-01-25 09:12:00,
2015-01-25 02:17:00,36.7,26.8,30.57,North,0,0.0,0.0,67,0.00,,,0.00,0.0,WUHU216DAVISVP2,2015-01-25 09:17:00,
2015-01-25 02:22:00,36.8,26.9,30.58,North,0,0.0,0.0,67,0.00,,,0.00,0.0,WUHU216DAVISVP2,2015-01-25 09:22:00,
2015-01-25 02:27:00,36.8,26.9,30.57,North,0,0.0,0.0,67,0.00,,,0.00,0.0,WUHU216DAVISVP2,2015-01-25 09:27:00,
2015-01-25 02:32:00,36.8,26.9,30.58,North,0,0.0,0.0,67,0.00,,,0.00,0.0,WUHU216DAVISVP2,2015-01-25 09:32:00,
2015-01-25 02:37:00,36.9,27.0,30.58,North,0,0.0,0.0,67,0.00,,,0.00,0.0,WUHU216DAVISVP2,2015-01-25 09:37:00,
2015-01-25 02:42:00,36.9,26.7,30.57,North,0,0.0,0.0,66,0.00,,,0.00,0.0,WUHU216DAVISVP2,2015-01-25 09:42:00,
2015-01-25 02:47:00,36.9,27.0,30.57,North,0,0.0,0.0,67,0.00,,,0.00,0.0,WUHU216DAVISVP2,2015-01-25 09:47:00,
2015-01-25 02:52:00,36.8,27.3,30.57,North,0,0.0,0.0,68,0.00,,,0.00,0.0,WUHU216DAVISVP2,2015-01-25 09:52:00,
2015-01-25 02:57:00,36.8,27.3,30.56,North,0,0.0,0.0,68,0.00,,,0.00,0.0,WUHU216DAVISVP2,2015-01-25 09:57:00,
2015-01-25 03:02:00,36.8,26.5,30.56,North,0,0.0,0.0,66,0.00,,,0.00,0.0,WUHU216DAVISVP2,2015-01-25 10:02:00,
2015-01-25 03:07:00,36.7,26.8,30.56,North,0,0.0,0.0,67,0.00,,,0.00,0.0,WUHU216DAVISVP2,2015-01-25 10:07:00,
2015-01-25 03:12:00,36.8,26.9,30.56,North,0,0.0,0.0,67,0.00,,,0.00,0.0,WUHU216DAVISVP2,2015-01-25 10:12:00,
2015-01-25 03:17:00,36.9,27.0,30.57,North,0,0.0,0.0,67,0.00,,,0.00,0.0,WUHU216DAVISVP2,2015-01-25 10:17:00,
2015-01-25 03:22:00,37.0,27.1,30.56,North,0,0.0,0.0,67,0.00,,,0.00,0.0,WUHU216DAVISVP2,2015-01-25 10:22:00,
2015-01-25 03:27:00,37.0,27.1,30.57,North,0,0.0,0.0,67,0.00,,,0.00,0.0,WUHU216DAVISVP2,2015-01-25 10:27:00,
2015-01-25 03:32:00,37.2,27.3,30.57,North,0,0.0,0.0,67,0.00,,,0.00,0.0,WUHU216DAVISVP2,2015-01-25 10:32:00,
2015-01-25 03:37:00,37.4,27.9,30.56,North,0,0.0,0.0,68,0.00,,,0.00,0.0,WUHU216DAVISVP2,2015-01-25 10:37:00,
2015-01-25 03:42:00,37.5,28.7,30.55,North,0,0.0,0.0,70,0.00,,,0.00,0.0,WUHU216DAVISVP2,2015-01-25 10:42:00,
2015-01-25 03:47:00,37.6,29.5,30.55,North,0,0.0,0.0,72,0.00,,,0.00,0.0,WUHU216DAVISVP2,2015-01-25 10:47:00,
2015-01-25 03:52:00,37.7,29.2,30.56,North,0,0.0,0.0,71,0.00,,,0.00,0.0,WUHU216DAVISVP2,2015-01-25 10:52:00,
2015-01-25 03:57:00,37.7,28.9,30.55,North,0,0.0,0.0,70,0.00,,,0.00,0.0,WUHU216DAVISVP2,2015-01-25 10:57:00,
2015-01-25 04:02:00,37.6,28.1,30.55,North,0,0.0,0.0,68,0.00,,,0.00,0.0,WUHU216DAVISVP2,2015-01-25 11:02:00,
2015-01-25 04:07:00,37.6,28.1,30.55,North,0,0.0,0.0,68,0.00,,,0.00,0.0,WUHU216DAVISVP2,2015-01-25 11:07:00,
2015-01-25 04:12:00,37.7,27.8,30.55,North,0,0.0,0.0,67,0.00,,,0.00,0.0,WUHU216DAVISVP2,2015-01-25 11:12:00,
2015-01-25 04:17:00,37.8,28.3,30.55,North,0,0.0,0.0,68,0.00,,,0.00,0.0,WUHU216DAVISVP2,2015-01-25 11:17:00,
2015-01-25 04:22:00,37.9,28.4,30.55,North,0,0.0,0.0,68,0.00,,,0.00,0.0,WUHU216DAVISVP2,2015-01-25 11:22:00,
2015-01-25 04:27:00,38.0,28.5,30.55,North,0,0.0,0.0,68,0.00,,,0.00,0.0,WUHU216DAVISVP2,2015-01-25 11:27:00,
2015-01-25 04:32:00,38.2,28.3,30.55,North,0,0.0,0.0,67,0.00,,,0.00,0.0,WUHU216DAVISVP2,2015-01-25 11:32:00,
2015-01-25 04:37:00,38.2,27.9,30.55,North,0,0.0,0.0,66,0.00,,,0.00,0.0,WUHU216DAVISVP2,2015-01-25 11:37:00,
2015-01-25 04:42:00,38.0,27.7,30.55,North,0,0.0,0.0,66,0.00,,,0.00,0.0,WUHU216DAVISVP2,2015-01-25 11:42:00,
2015-01-25 04:47:00,37.7,27.8,30.55,North,0,0.0,0.0,67,0.00,,,0.00,0.0,WUHU216DAVISVP2,2015-01-25 11:47:00,
2015-01-25 04:52:00,37.3,27.4,30.55,North,0,0.0,0.0,67,0.00,,,0.00,0.0,WUHU216DAVISVP2,2015-01-25 11:52:00,
2015-01-25 04:57:00,37.0,27.1,30.55,North,0,0.0,0.0,67,0.00,,,0.00,0.0,WUHU216DAVISVP2,2015-01-25 11:57:00,
2015-01-25 05:02:00,36.9,27.0,30.55,North,0,0.0,0.0,67,0.00,,,0.00,0.0,WUHU216DAVISVP2,2015-01-25 12:02:00,
2015-01-25 05:07:00,36.9,27.0,30.55,North,0,0.0,0.0,67,0.00,,,0.00,0.0,WUHU216DAVISVP2,2015-01-25 12:07:00,
2015-01-25 05:12:00,36.8,26.9,30.55,North,0,0.0,0.0,67,0.00,,,0.00,0.0,WUHU216DAVISVP2,2015-01-25 12:12:00,
2015-01-25 05:17:00,36.8,27.3,30.55,North,0,0.0,0.0,68,0.00,,,0.00,0.0,WUHU216DAVISVP2,2015-01-25 12:17:00,
2015-01-25 05:22:00,36.8,27.7,30.55,North,0,0.0,0.0,69,0.00,,,0.00,0.0,WUHU216DAVISVP2,2015-01-25 12:22:00,
2015-01-25 05:27:00,36.6,27.1,30.55,North,0,0.0,0.0,68,0.00,,,0.00,0.0,WUHU216DAVISVP2,2015-01-25 12:27:00,
2015-01-25 05:32:00,36.8,27.3,30.55,North,0,0.0,0.0,68,0.00,,,0.00,0.0,WUHU216DAVISVP2,2015-01-25 12:32:00,
2015-01-25 05:37:00,36.9,27.4,30.55,North,0,0.0,0.0,68,0.00,,,0.00,0.0,WUHU216DAVISVP2,2015-01-25 12:37:00,
2015-01-25 05:42:00,36.9,27.0,30.55,North,0,0.0,0.0,67,0.00,,,0.00,0.0,WUHU216DAVISVP2,2015-01-25 12:42:00,
2015-01-25 05:47:00,36.8,26.9,30.55,North,0,0.0,0.0,67,0.00,,,0.00,0.0,WUHU216DAVISVP2,2015-01-25 12:47:00,
2015-01-25 05:52:00,36.8,26.6,30.55,North,0,0.0,0.0,66,0.00,,,0.00,0.0,WUHU216DAVISVP2,2015-01-25 12:52:00,
2015-01-25 05:57:00,36.8,26.9,30.55,North,0,0.0,0.0,67,0.00,,,0.00,0.0,WUHU216DAVISVP2,2015-01-25 12:57:00,
2015-01-25 06:02:00,36.7,27.9,30.54,North,0,0.0,0.0,70,0.00,,,0.00,0.0,WUHU216DAVISVP2,2015-01-25 13:02:00,
2015-01-25 06:07:00,36.6,27.8,30.54,North,0,0.0,0.0,70,0.00,,,0.00,0.0,WUHU216DAVISVP2,2015-01-25 13:07:00,
2015-01-25 06:12:00,36.5,28.4,30.54,North,0,0.0,0.0,72,0.00,,,0.00,0.0,WUHU216DAVISVP2,2015-01-25 13:12:00,
2015-01-25 06:17:00,36.4,27.6,30.54,North,0,0.0,0.0,70,0.00,,,0.00,0.0,WUHU216DAVISVP2,2015-01-25 13:17:00,
2015-01-25 06:22:00,36.3,27.9,30.54,North,0,0.0,0.0,71,0.00,,,0.00,0.0,WUHU216DAVISVP2,2015-01-25 13:22:00,
2015-01-25 06:27:00,36.3,28.2,30.54,North,0,0.0,0.0,72,0.00,,,0.00,0.0,WUHU216DAVISVP2,2015-01-25 13:27:00,
2015-01-25 06:32:00,36.3,28.2,30.53,North,0,0.0,0.0,72,0.00,,,0.00,0.0,WUHU216DAVISVP2,2015-01-25 13:32:00,
2015-01-25 06:37:00,36.4,28.3,30.54,North,0,0.0,0.0,72,0.00,,,0.00,0.0,WUHU216DAVISVP2,2015-01-25 13:37:00,
2015-01-25 06:42:00,36.6,28.5,30.54,North,0,0.0,0.0,72,0.00,,,0.00,0.0,WUHU216DAVISVP2,2015-01-25 13:42:00,
2015-01-25 06:47:00,36.7,28.2,30.54,North,0,0.0,0.0,71,0.00,,,0.00,0.0,WUHU216DAVISVP2,2015-01-25 13:47:00,
2015-01-25 06:52:00,36.5,28.1,30.55,North,0,0.0,0.0,71,0.00,,,0.00,0.0,WUHU216DAVISVP2,2015-01-25 13:52:00,
2015-01-25 06:57:00,36.2,28.1,30.55,North,0,0.0,0.0,72,0.00,,,0.00,0.0,WUHU216DAVISVP2,2015-01-25 13:57:00,
2015-01-25 07:02:00,36.2,28.4,30.55,North,0,0.0,0.0,73,0.00,,,0.00,0.0,WUHU216DAVISVP2,2015-01-25 14:02:00,
2015-01-25 07:07:00,36.4,28.6,30.55,North,0,0.0,0.0,73,0.00,,,0.00,0.0,WUHU216DAVISVP2,2015-01-25 14:07:00,
2015-01-25 07:12:00,36.6,28.5,30.55,North,0,0.0,0.0,72,0.00,,,0.00,0.0,WUHU216DAVISVP2,2015-01-25 14:12:00,
2015-01-25 07:17:00,36.7,28.9,30.55,North,0,0.0,0.0,73,0.00,,,0.00,0.0,WUHU216DAVISVP2,2015-01-25 14:17:00,
2015-01-25 07:22:00,36.7,28.6,30.55,North,0,0.0,0.0,72,0.00,,,0.00,0.0,WUHU216DAVISVP2,2015-01-25 14:22:00,
2015-01-25 07:27:00,36.7,28.6,30.54,North,0,0.0,0.0,72,0.00,,,0.00,0.0,WUHU216DAVISVP2,2015-01-25 14:27:00,
2015-01-25 07:31:00,36.5,28.1,30.54,North,0,0.0,0.0,71,0.00,,,0.00,0.0,WUHU216DAVISVP2,2015-01-25 14:31:00,
2015-01-25 07:36:00,36.5,27.7,30.54,North,0,0.0,0.0,70,0.00,,,0.00,5.0,WUHU216DAVISVP2,2015-01-25 14:36:00,
2015-01-25 07:41:00,36.5,27.7,30.54,North,0,0.0,0.0,70,0.00,,,0.00,7.0,WUHU216DAVISVP2,2015-01-25 14:41:00,
2015-01-25 07:46:00,36.5,27.7,30.54,North,0,0.0,0.0,70,0.00,,,0.00,9.0,WUHU216DAVISVP2,2015-01-25 14:46:00,
2015-01-25 07:51:00,36.6,27.5,30.54,North,0,0.0,0.0,69,0.00,,,0.00,12.0,WUHU216DAVISVP2,2015-01-25 14:51:00,
2015-01-25 07:56:00,36.6,27.0,30.53,North,0,0.0,0.0,68,0.00,,,0.00,14.0,WUHU216DAVISVP2,2015-01-25 14:56:00,
2015-01-25 08:01:00,36.5,26.9,30.53,North,0,0.0,0.0,68,0.00,,,0.00,16.0,WUHU216DAVISVP2,2015-01-25 15:01:00,
2015-01-25 08:06:00,36.3,26.7,30.54,North,0,0.0,0.0,68,0.00,,,0.00,21.0,WUHU216DAVISVP2,2015-01-25 15:06:00,
2015-01-25 08:11:00,35.9,26.7,30.54,North,0,0.0,0.0,69,0.00,,,0.00,28.0,WUHU216DAVISVP2,2015-01-25 15:11:00,
2015-01-25 08:16:00,35.4,26.7,30.54,North,0,0.0,0.0,70,0.00,,,0.00,33.0,WUHU216DAVISVP2,2015-01-25 15:16:00,
2015-01-25 08:21:00,34.9,26.2,30.54,North,0,0.0,0.0,70,0.00,,,0.00,40.0,WUHU216DAVISVP2,2015-01-25 15:21:00,
2015-01-25 08:26:00,34.5,26.5,30.55,North,0,0.0,0.0,72,0.00,,,0.00,49.0,WUHU216DAVISVP2,2015-01-25 15:26:00,
2015-01-25 08:31:00,34.2,26.5,30.55,North,0,0.0,0.0,73,0.00,,,0.00,58.0,WUHU216DAVISVP2,2015-01-25 15:31:00,
2015-01-25 08:36:00,34.0,27.0,30.55,North,0,0.0,0.0,75,0.00,,,0.00,63.0,WUHU216DAVISVP2,2015-01-25 15:36:00,
2015-01-25 08:41:00,33.9,27.5,30.55,North,0,0.0,0.0,77,0.00,,,0.00,63.0,WUHU216DAVISVP2,2015-01-25 15:41:00,
2015-01-25 08:46:00,33.6,27.5,30.54,North,0,0.0,0.0,78,0.00,,,0.00,63.0,WUHU216DAVISVP2,2015-01-25 15:46:00,
2015-01-25 08:51:00,33.3,27.2,30.54,North,0,0.0,0.0,78,0.00,,,0.00,67.0,WUHU216DAVISVP2,2015-01-25 15:51:00,
2015-01-25 08:56:00,33.2,27.4,30.54,North,0,0.0,0.0,79,0.00,,,0.00,67.0,WUHU216DAVISVP2,2015-01-25 15:56:00,
2015-01-25 09:01:00,33.2,27.4,30.54,North,0,0.0,0.0,79,0.00,,,0.00,100.0,WUHU216DAVISVP2,2015-01-25 16:01:00,
2015-01-25 09:06:00,33.4,27.6,30.53,North,0,0.0,0.0,79,0.00,,,0.00,105.0,WUHU216DAVISVP2,2015-01-25 16:06:00,
2015-01-25 09:11:00,34.1,28.3,30.54,North,0,0.0,0.0,79,0.00,,,0.00,102.0,WUHU216DAVISVP2,2015-01-25 16:11:00,
2015-01-25 09:16:00,35.2,29.4,30.54,North,0,0.0,0.0,79,0.00,,,0.00,86.0,WUHU216DAVISVP2,2015-01-25 16:16:00,
2015-01-25 09:21:00,36.2,30.0,30.54,North,0,0.0,0.0,78,0.00,,,0.00,79.0,WUHU216DAVISVP2,2015-01-25 16:21:00,
2015-01-25 09:26:00,37.0,30.2,30.53,North,0,0.0,0.0,76,0.00,,,0.00,79.0,WUHU216DAVISVP2,2015-01-25 16:26:00,
2015-01-25 09:31:00,37.3,29.5,30.53,North,0,0.0,0.0,73,0.00,,,0.00,98.0,WUHU216DAVISVP2,2015-01-25 16:31:00,
2015-01-25 09:36:00,37.9,30.1,30.54,North,0,0.0,0.0,73,0.00,,,0.00,269.0,WUHU216DAVISVP2,2015-01-25 16:36:00,
2015-01-25 09:41:00,38.4,29.9,30.54,North,0,0.0,0.0,71,0.00,,,0.00,244.0,WUHU216DAVISVP2,2015-01-25 16:41:00,
2015-01-25 09:46:00,38.5,29.3,30.54,North,0,0.0,0.0,69,0.00,,,0.00,88.0,WUHU216DAVISVP2,2015-01-25 16:46:00,
2015-01-25 09:51:00,38.3,28.4,30.54,North,0,0.0,0.0,67,0.00,,,0.00,165.0,WUHU216DAVISVP2,2015-01-25 16:51:00,
2015-01-25 09:56:00,38.6,29.0,30.54,North,0,0.0,0.0,68,0.00,,,0.00,294.0,WUHU216DAVISVP2,2015-01-25 16:56:00,
2015-01-25 10:01:00,39.4,29.0,30.54,North,0,0.0,0.0,66,0.00,,,0.00,295.0,WUHU216DAVISVP2,2015-01-25 17:01:00,
2015-01-25 10:06:00,39.6,28.9,30.55,North,0,0.0,0.0,65,0.00,,,0.00,290.0,WUHU216DAVISVP2,2015-01-25 17:06:00,
2015-01-25 10:11:00,39.5,28.8,30.55,North,0,0.0,0.0,65,0.00,,,0.00,311.0,WUHU216DAVISVP2,2015-01-25 17:11:00,
2015-01-25 10:16:00,39.5,28.8,30.55,North,0,0.0,0.0,65,0.00,,,0.00,322.0,WUHU216DAVISVP2,2015-01-25 17:16:00,
2015-01-25 10:21:00,40.0,29.3,30.54,North,0,0.0,0.0,65,0.00,,,0.00,353.0,WUHU216DAVISVP2,2015-01-25 17:21:00,
2015-01-25 10:26:00,40.8,29.6,30.55,North,0,0.0,0.0,64,0.00,,,0.00,364.0,WUHU216DAVISVP2,2015-01-25 17:26:00,
2015-01-25 10:31:00,41.3,29.6,30.55,North,0,0.0,0.0,63,0.00,,,0.00,376.0,WUHU216DAVISVP2,2015-01-25 17:31:00,
2015-01-25 10:36:00,41.1,29.5,30.55,North,0,0.0,0.0,63,0.00,,,0.00,381.0,WUHU216DAVISVP2,2015-01-25 17:36:00,
2015-01-25 10:41:00,40.7,29.9,30.55,North,0,0.0,0.0,65,0.00,,,0.00,392.0,WUHU216DAVISVP2,2015-01-25 17:41:00,
2015-01-25 10:46:00,40.9,29.7,30.56,North,0,0.0,0.0,64,0.00,,,0.00,404.0,WUHU216DAVISVP2,2015-01-25 17:46:00,
2015-01-25 10:51:00,41.4,30.2,30.56,North,0,0.0,0.0,64,0.00,,,0.00,415.0,WUHU216DAVISVP2,2015-01-25 17:51:00,
2015-01-25 10:56:00,42.0,29.9,30.55,North,0,0.0,0.0,62,0.00,,,0.00,415.0,WUHU216DAVISVP2,2015-01-25 17:56:00,
2015-01-25 11:01:00,42.4,30.4,30.55,North,0,0.0,0.0,62,0.00,,,0.00,434.0,WUHU216DAVISVP2,2015-01-25 18:01:00,
2015-01-25 11:06:00,42.7,30.3,30.55,North,0,0.0,0.0,61,0.00,,,0.00,445.0,WUHU216DAVISVP2,2015-01-25 18:06:00,
2015-01-25 11:11:00,42.3,30.3,30.55,North,0,0.0,0.0,62,0.00,,,0.00,454.0,WUHU216DAVISVP2,2015-01-25 18:11:00,
2015-01-25 11:16:00,42.4,30.3,30.55,North,0,0.0,0.0,62,0.00,,,0.00,450.0,WUHU216DAVISVP2,2015-01-25 18:16:00,
2015-01-25 11:21:00,42.4,30.4,30.55,North,0,0.0,0.0,62,0.00,,,0.00,457.0,WUHU216DAVISVP2,2015-01-25 18:21:00,
2015-01-25 11:26:00,42.3,30.7,30.55,North,0,0.0,0.0,63,0.00,,,0.00,459.0,WUHU216DAVISVP2,2015-01-25 18:26:00,
2015-01-25 11:31:00,42.2,30.6,30.55,North,0,0.0,0.0,63,0.00,,,0.00,462.0,WUHU216DAVISVP2,2015-01-25 18:31:00,
2015-01-25 11:36:00,42.4,30.8,30.55,North,0,0.0,0.0,63,0.00,,,0.00,471.0,WUHU216DAVISVP2,2015-01-25 18:36:00,
2015-01-25 11:41:00,42.5,30.5,30.55,North,0,0.0,0.0,62,0.00,,,0.00,478.0,WUHU216DAVISVP2,2015-01-25 18:41:00,
2015-01-25 11:46:00,42.3,30.7,30.55,North,0,0.0,0.0,63,0.00,,,0.00,490.0,WUHU216DAVISVP2,2015-01-25 18:46:00,
2015-01-25 11:51:00,42.7,30.7,30.55,North,0,0.0,0.0,62,0.00,,,0.00,497.0,WUHU216DAVISVP2,2015-01-25 18:51:00,
2015-01-25 11:56:00,42.7,30.7,30.55,North,0,0.0,0.0,62,0.00,,,0.00,497.0,WUHU216DAVISVP2,2015-01-25 18:56:00,
2015-01-25 12:01:00,42.8,30.8,30.55,North,0,0.0,0.0,62,0.00,,,0.00,506.0,WUHU216DAVISVP2,2015-01-25 19:01:00,
2015-01-25 12:06:00,43.1,31.0,30.54,North,0,0.0,0.0,62,0.00,,,0.00,513.0,WUHU216DAVISVP2,2015-01-25 19:06:00,
2015-01-25 12:11:00,43.5,30.6,30.54,North,0,0.0,0.0,60,0.00,,,0.00,520.0,WUHU216DAVISVP2,2015-01-25 19:11:00,
2015-01-25 12:16:00,43.4,30.9,30.54,North,0,0.0,0.0,61,0.00,,,0.00,524.0,WUHU216DAVISVP2,2015-01-25 19:16:00,
2015-01-25 12:21:00,44.0,30.7,30.54,North,0,0.0,0.0,59,0.00,,,0.00,531.0,WUHU216DAVISVP2,2015-01-25 19:21:00,
2015-01-25 12:26:00,44.2,30.8,30.54,North,0,0.0,0.0,59,0.00,,,0.00,533.0,WUHU216DAVISVP2,2015-01-25 19:26:00,
2015-01-25 12:31:00,44.9,31.5,30.54,North,0,0.0,0.0,59,0.00,,,0.00,541.0,WUHU216DAVISVP2,2015-01-25 19:31:00,
2015-01-25 12:36:00,45.1,30.8,30.53,North,0,0.0,0.0,57,0.00,,,0.00,499.0,WUHU216DAVISVP2,2015-01-25 19:36:00,
2015-01-25 12:41:00,45.0,30.7,30.53,North,0,0.0,0.0,57,0.00,,,0.00,545.0,WUHU216DAVISVP2,2015-01-25 19:41:00,
2015-01-25 12:46:00,45.2,30.9,30.52,North,0,0.0,0.0,57,0.00,,,0.00,512.0,WUHU216DAVISVP2,2015-01-25 19:46:00,
2015-01-25 12:51:00,45.5,31.2,30.52,North,0,0.0,0.0,57,0.00,,,0.00,531.0,WUHU216DAVISVP2,2015-01-25 19:51:00,
2015-01-25 12:56:00,45.4,31.1,30.52,North,0,0.0,0.0,57,0.00,,,0.00,522.0,WUHU216DAVISVP2,2015-01-25 19:56:00,
2015-01-25 13:01:00,45.1,30.8,30.52,North,0,0.0,0.0,57,0.00,,,0.00,480.0,WUHU216DAVISVP2,2015-01-25 20:01:00,
2015-01-25 13:06:00,44.9,30.6,30.52,North,0,0.0,0.0,57,0.00,,,0.00,464.0,WUHU216DAVISVP2,2015-01-25 20:06:00,
2015-01-25 13:11:00,45.5,31.2,30.51,North,0,0.0,0.0,57,0.00,,,0.00,490.0,WUHU216DAVISVP2,2015-01-25 20:11:00,
2015-01-25 13:16:00,45.6,31.3,30.51,North,0,0.0,0.0,57,0.00,,,0.00,533.0,WUHU216DAVISVP2,2015-01-25 20:16:00,
2015-01-25 13:21:00,45.9,30.7,30.51,North,0,0.0,0.0,55,0.00,,,0.00,529.0,WUHU216DAVISVP2,2015-01-25 20:21:00,
2015-01-25 13:26:00,46.4,31.6,30.50,North,0,0.0,0.0,56,0.00,,,0.00,513.0,WUHU216DAVISVP2,2015-01-25 20:26:00,
2015-01-25 13:31:00,46.7,31.8,30.50,North,0,0.0,0.0,56,0.00,,,0.00,517.0,WUHU216DAVISVP2,2015-01-25 20:31:00,
2015-01-25 13:36:00,46.8,31.5,30.50,North,0,0.0,0.0,55,0.00,,,0.00,519.0,WUHU216DAVISVP2,2015-01-25 20:36:00,
2015-01-25 13:41:00,47.0,31.7,30.49,North,0,0.0,0.0,55,0.00,,,0.00,508.0,WUHU216DAVISVP2,2015-01-25 20:41:00,
2015-01-25 13:46:00,46.8,31.5,30.49,North,0,0.0,0.0,55,0.00,,,0.00,503.0,WUHU216DAVISVP2,2015-01-25 20:46:00,
2015-01-25 13:51:00,46.9,32.1,30.49,North,0,0.0,0.0,56,0.00,,,0.00,501.0,WUHU216DAVISVP2,2015-01-25 20:51:00,
2015-01-25 13:56:00,47.1,32.3,30.49,North,0,0.0,0.0,56,0.00,,,0.00,497.0,WUHU216DAVISVP2,2015-01-25 20:56:00,
2015-01-25 14:01:00,47.0,31.7,30.49,North,0,0.0,0.0,55,0.00,,,0.00,490.0,WUHU216DAVISVP2,2015-01-25 21:01:00,
2015-01-25 14:06:00,47.1,32.3,30.49,North,0,0.0,0.0,56,0.00,,,0.00,480.0,WUHU216DAVISVP2,2015-01-25 21:06:00,
2015-01-25 14:11:00,47.3,32.4,30.48,North,0,0.0,0.0,56,0.00,,,0.00,480.0,WUHU216DAVISVP2,2015-01-25 21:11:00,
2015-01-25 14:16:00,47.2,32.3,30.48,North,0,0.0,0.0,56,0.00,,,0.00,475.0,WUHU216DAVISVP2,2015-01-25 21:16:00,
2015-01-25 14:21:00,47.4,32.1,30.48,North,0,0.0,0.0,55,0.00,,,0.00,462.0,WUHU216DAVISVP2,2015-01-25 21:21:00,
2015-01-25 14:26:00,47.5,32.2,30.48,North,0,0.0,0.0,55,0.00,,,0.00,462.0,WUHU216DAVISVP2,2015-01-25 21:26:00,
2015-01-25 14:31:00,47.4,32.1,30.48,North,0,0.0,0.0,55,0.00,,,0.00,455.0,WUHU216DAVISVP2,2015-01-25 21:31:00,
2015-01-25 14:36:00,47.1,32.2,30.48,North,0,0.0,0.0,56,0.00,,,0.00,446.0,WUHU216DAVISVP2,2015-01-25 21:36:00,
2015-01-25 14:41:00,47.1,32.7,30.48,North,0,0.0,0.0,57,0.00,,,0.00,436.0,WUHU216DAVISVP2,2015-01-25 21:41:00,
2015-01-25 14:46:00,47.1,32.6,30.48,North,0,0.0,0.0,57,0.00,,,0.00,429.0,WUHU216DAVISVP2,2015-01-25 21:46:00,
2015-01-25 14:51:00,47.3,32.4,30.47,North,0,0.0,0.0,56,0.00,,,0.00,418.0,WUHU216DAVISVP2,2015-01-25 21:51:00,
2015-01-25 14:56:00,47.2,32.3,30.48,North,0,0.0,0.0,56,0.00,,,0.00,410.0,WUHU216DAVISVP2,2015-01-25 21:56:00,
2015-01-25 15:01:00,47.5,32.6,30.48,North,0,0.0,0.0,56,0.00,,,0.00,404.0,WUHU216DAVISVP2,2015-01-25 22:01:00,
2015-01-25 15:06:00,47.4,32.5,30.48,North,0,0.0,0.0,56,0.00,,,0.00,397.0,WUHU216DAVISVP2,2015-01-25 22:06:00,
2015-01-25 15:11:00,47.3,32.4,30.47,North,0,0.0,0.0,56,0.00,,,0.00,387.0,WUHU216DAVISVP2,2015-01-25 22:11:00,
2015-01-25 15:16:00,47.3,32.9,30.47,North,0,0.0,0.0,57,0.00,,,0.00,376.0,WUHU216DAVISVP2,2015-01-25 22:16:00,
2015-01-25 15:21:00,47.3,32.9,30.47,North,0,0.0,0.0,57,0.00,,,0.00,364.0,WUHU216DAVISVP2,2015-01-25 22:21:00,
2015-01-25 15:26:00,47.5,33.1,30.46,North,0,0.0,0.0,57,0.00,,,0.00,353.0,WUHU216DAVISVP2,2015-01-25 22:26:00,
2015-01-25 15:31:00,47.6,32.7,30.46,North,0,0.0,0.0,56,0.00,,,0.00,341.0,WUHU216DAVISVP2,2015-01-25 22:31:00,
2015-01-25 15:36:00,47.6,32.7,30.46,North,0,0.0,0.0,56,0.00,,,0.00,322.0,WUHU216DAVISVP2,2015-01-25 22:36:00,
2015-01-25 15:41:00,47.5,32.6,30.47,North,0,0.0,0.0,56,0.00,,,0.00,308.0,WUHU216DAVISVP2,2015-01-25 22:41:00,
2015-01-25 15:46:00,47.1,33.1,30.47,North,0,0.0,0.0,58,0.00,,,0.00,294.0,WUHU216DAVISVP2,2015-01-25 22:46:00,
2015-01-25 15:51:00,46.9,33.0,30.47,North,0,0.0,0.0,58,0.00,,,0.00,279.0,WUHU216DAVISVP2,2015-01-25 22:51:00,
2015-01-25 15:56:00,46.9,33.3,30.47,North,0,0.0,0.0,59,0.00,,,0.00,265.0,WUHU216DAVISVP2,2015-01-25 22:56:00,
2015-01-25 16:01:00,47.0,33.5,30.46,North,0,0.0,0.0,59,0.00,,,0.00,251.0,WUHU216DAVISVP2,2015-01-25 23:01:00,
2015-01-25 16:06:00,47.1,33.6,30.46,North,0,0.0,0.0,59,0.00,,,0.00,230.0,WUHU216DAVISVP2,2015-01-25 23:06:00,
2015-01-25 16:11:00,47.0,33.5,30.46,North,0,0.0,0.0,59,0.00,,,0.00,199.0,WUHU216DAVISVP2,2015-01-25 23:11:00,
2015-01-25 16:16:00,46.9,33.7,30.46,North,0,0.0,0.0,60,0.00,,,0.00,172.0,WUHU216DAVISVP2,2015-01-25 23:16:00,
2015-01-25 16:21:00,46.4,33.7,30.46,North,0,0.0,0.0,61,0.00,,,0.00,167.0,WUHU216DAVISVP2,2015-01-25 23:21:00,
2015-01-25 16:26:00,46.3,33.7,30.46,North,0,0.0,0.0,61,0.00,,,0.00,141.0,WUHU216DAVISVP2,2015-01-25 23:26:00,
2015-01-25 16:31:00,46.0,33.0,30.46,North,0,0.0,0.0,60,0.00,,,0.00,114.0,WUHU216DAVISVP2,2015-01-25 23:31:00,
2015-01-25 16:36:00,45.7,33.1,30.46,North,0,0.0,0.0,61,0.00,,,0.00,105.0,WUHU216DAVISVP2,2015-01-25 23:36:00,
2015-01-25 16:41:00,45.6,33.0,30.46,North,0,0.0,0.0,61,0.00,,,0.00,107.0,WUHU216DAVISVP2,2015-01-25 23:41:00,
2015-01-25 16:46:00,45.4,32.8,30.45,North,0,0.0,0.0,61,0.00,,,0.00,90.0,WUHU216DAVISVP2,2015-01-25 23:46:00,
2015-01-25 16:51:00,45.3,32.6,30.46,North,0,0.0,0.0,61,0.00,,,0.00,91.0,WUHU216DAVISVP2,2015-01-25 23:51:00,
2015-01-25 16:56:00,45.3,32.7,30.45,North,0,0.0,0.0,61,0.00,,,0.00,74.0,WUHU216DAVISVP2,2015-01-25 23:56:00,
2015-01-25 17:01:00,45.2,32.6,30.45,North,0,0.0,0.0,61,0.00,,,0.00,62.0,WUHU216DAVISVP2,2015-01-26 00:01:00,
2015-01-25 17:06:00,45.0,32.8,30.46,North,0,0.0,0.0,62,0.00,,,0.00,47.0,WUHU216DAVISVP2,2015-01-26 00:06:00,
2015-01-25 17:11:00,44.9,32.8,30.46,North,0,0.0,0.0,62,0.00,,,0.00,42.0,WUHU216DAVISVP2,2015-01-26 00:11:00,
2015-01-25 17:16:00,44.6,32.5,30.46,North,0,0.0,0.0,62,0.00,,,0.00,35.0,WUHU216DAVISVP2,2015-01-26 00:16:00,
2015-01-25 17:21:00,44.5,32.4,30.46,North,0,0.0,0.0,62,0.00,,,0.00,26.0,WUHU216DAVISVP2,2015-01-26 00:21:00,
2015-01-25 17:26:00,44.5,32.8,30.46,North,0,0.0,0.0,63,0.00,,,0.00,19.0,WUHU216DAVISVP2,2015-01-26 00:26:00,
2015-01-25 17:31:00,44.7,32.9,30.46,North,0,0.0,0.0,63,0.00,,,0.00,12.0,WUHU216DAVISVP2,2015-01-26 00:31:00,
2015-01-25 17:36:00,44.7,32.6,30.46,North,0,0.0,0.0,62,0.00,,,0.00,7.0,WUHU216DAVISVP2,2015-01-26 00:36:00,
2015-01-25 17:41:00,44.5,32.0,30.45,North,0,0.0,0.0,61,0.00,,,0.00,5.0,WUHU216DAVISVP2,2015-01-26 00:41:00,
2015-01-25 17:46:00,44.2,32.5,30.45,North,0,0.0,0.0,63,0.00,,,0.00,5.0,WUHU216DAVISVP2,2015-01-26 00:46:00,
2015-01-25 17:51:00,44.0,32.3,30.45,North,0,0.0,0.0,63,0.00,,,0.00,0.0,WUHU216DAVISVP2,2015-01-26 00:51:00,
2015-01-25 17:56:00,43.6,31.8,30.45,North,0,0.0,0.0,63,0.00,,,0.00,0.0,WUHU216DAVISVP2,2015-01-26 00:56:00,
2015-01-25 18:01:00,43.1,31.4,30.45,North,0,0.0,0.0,63,0.00,,,0.00,0.0,WUHU216DAVISVP2,2015-01-26 01:01:00,
2015-01-25 18:06:00,42.5,32.0,30.45,North,0,0.0,0.0,66,0.00,,,0.00,0.0,WUHU216DAVISVP2,2015-01-26 01:06:00,
2015-01-25 18:11:00,42.2,31.6,30.45,North,0,0.0,0.0,66,0.00,,,0.00,0.0,WUHU216DAVISVP2,2015-01-26 01:11:00,
2015-01-25 18:16:00,41.9,31.8,30.45,North,0,0.0,0.0,67,0.00,,,0.00,0.0,WUHU216DAVISVP2,2015-01-26 01:16:00,
2015-01-25 18:21:00,41.8,31.7,30.45,North,0,0.0,0.0,67,0.00,,,0.00,0.0,WUHU216DAVISVP2,2015-01-26 01:21:00,
2015-01-25 18:25:00,41.8,31.6,30.45,North,0,0.0,0.0,67,0.00,,,0.00,0.0,WUHU216DAVISVP2,2015-01-26 01:25:00,
2015-01-25 18:30:00,41.8,32.1,30.45,North,0,0.0,0.0,68,0.00,,,0.00,0.0,WUHU216DAVISVP2,2015-01-26 01:30:00,
2015-01-25 18:35:00,41.6,31.9,30.45,North,0,0.0,0.0,68,0.00,,,0.00,0.0,WUHU216DAVISVP2,2015-01-26 01:35:00,
2015-01-25 18:40:00,41.3,31.6,30.45,North,0,0.0,0.0,68,0.00,,,0.00,0.0,WUHU216DAVISVP2,2015-01-26 01:40:00,
2015-01-25 18:45:00,41.0,31.6,30.45,North,0,0.0,0.0,69,0.00,,,0.00,0.0,WUHU216DAVISVP2,2015-01-26 01:45:00,
2015-01-25 18:50:00,40.8,31.9,30.45,North,0,0.0,0.0,70,0.00,,,0.00,0.0,WUHU216DAVISVP2,2015-01-26 01:50:00,
2015-01-25 18:55:00,40.6,31.7,30.45,North,0,0.0,0.0,70,0.00,,,0.00,0.0,WUHU216DAVISVP2,2015-01-26 01:55:00,
2015-01-25 19:00:00,40.9,31.9,30.45,North,0,0.0,0.0,70,0.00,,,0.00,0.0,WUHU216DAVISVP2,2015-01-26 02:00:00,
2015-01-25 19:05:00,41.1,31.7,30.45,North,0,0.0,0.0,69,0.00,,,0.00,0.0,WUHU216DAVISVP2,2015-01-26 02:05:00,
2015-01-25 19:10:00,41.0,31.7,30.45,North,0,0.0,0.0,69,0.00,,,0.00,0.0,WUHU216DAVISVP2,2015-01-26 02:10:00,
2015-01-25 19:15:00,40.9,31.6,30.45,North,0,0.0,0.0,69,0.00,,,0.00,0.0,WUHU216DAVISVP2,2015-01-26 02:15:00,
2015-01-25 19:20:00,40.8,31.5,30.44,North,0,0.0,0.0,69,0.00,,,0.00,0.0,WUHU216DAVISVP2,2015-01-26 02:20:00,
2015-01-25 19:25:00,40.9,31.6,30.44,North,0,0.0,0.0,69,0.00,,,0.00,0.0,WUHU216DAVISVP2,2015-01-26 02:25:00,
2015-01-25 19:30:00,41.1,31.8,30.44,North,0,0.0,0.0,69,0.00,,,0.00,0.0,WUHU216DAVISVP2,2015-01-26 02:30:00,
2015-01-25 19:35:00,41.4,31.7,30.43,North,0,0.0,0.0,68,0.00,,,0.00,0.0,WUHU216DAVISVP2,2015-01-26 02:35:00,
2015-01-25 19:40:00,41.1,31.1,30.43,North,0,0.0,0.0,67,0.00,,,0.00,0.0,WUHU216DAVISVP2,2015-01-26 02:40:00,
2015-01-25 19:45:00,40.8,31.5,30.43,North,0,0.0,0.0,69,0.00,,,0.00,0.0,WUHU216DAVISVP2,2015-01-26 02:45:00,
2015-01-25 19:50:00,40.9,31.5,30.43,North,0,0.0,0.0,69,0.00,,,0.00,0.0,WUHU216DAVISVP2,2015-01-26 02:50:00,
2015-01-25 19:55:00,40.7,31.0,30.43,North,0,0.0,0.0,68,0.00,,,0.00,0.0,WUHU216DAVISVP2,2015-01-26 02:55:00,
2015-01-25 20:00:00,40.6,31.7,30.42,North,0,0.0,0.0,70,0.00,,,0.00,0.0,WUHU216DAVISVP2,2015-01-26 03:00:00,
2015-01-25 20:05:00,40.7,31.8,30.42,North,0,0.0,0.0,70,0.00,,,0.00,0.0,WUHU216DAVISVP2,2015-01-26 03:05:00,
2015-01-25 20:10:00,41.3,31.9,30.42,North,0,0.0,0.0,69,0.00,,,0.00,0.0,WUHU216DAVISVP2,2015-01-26 03:10:00,
2015-01-25 20:15:00,41.5,32.1,30.42,North,0,0.0,0.0,69,0.00,,,0.00,0.0,WUHU216DAVISVP2,2015-01-26 03:15:00,
2015-01-25 20:20:00,41.9,31.8,30.42,North,0,0.0,0.0,67,0.00,,,0.00,0.0,WUHU216DAVISVP2,2015-01-26 03:20:00,
2015-01-25 20:25:00,42.2,31.6,30.42,North,0,0.0,0.0,66,0.00,,,0.00,0.0,WUHU216DAVISVP2,2015-01-26 03:25:00,
2015-01-25 20:30:00,42.5,31.6,30.42,North,0,0.0,0.0,65,0.00,,,0.00,0.0,WUHU216DAVISVP2,2015-01-26 03:30:00,
2015-01-25 20:35:00,42.4,31.6,30.42,North,0,0.0,0.0,65,0.00,,,0.00,0.0,WUHU216DAVISVP2,2015-01-26 03:35:00,
2015-01-25 20:40:00,42.4,31.6,30.42,North,0,0.0,0.0,65,0.00,,,0.00,0.0,WUHU216DAVISVP2,2015-01-26 03:40:00,
2015-01-25 20:45:00,42.4,31.6,30.42,North,0,0.0,0.0,65,0.00,,,0.00,0.0,WUHU216DAVISVP2,2015-01-26 03:45:00,